Shen Hang 935 — BXGY — position and weather

sailwx.info

Track history (hours):
 
Tides and Currents Weather Stations Pressure Air Temp Water Temp Dewpoint Dewpoint Depression Visibility Wind Speed Wind Dir Waves Ship Positions

Shen Hang 935

Last reported at 2015-May-25 20:25 UTC. Time now 2015-May-26 09:41 UTC.
Position N 22°18' E 114°09'.

Length 49 m; draft 2.1 m.

Type: Ship. MMSI: 412466550.

Date/timePositionNaut miles runAvg speedWind from/ knotsBaromVisibWave heightAir tempDewpointWater temp
2015-May-25 20:25N 22°18' E 114°09'5 6.1
2015-May-25 19:33N 22°17' E 114°14'  
2015-May-23 13:33N 22°18' E 114°13'5 4.9
2015-May-23 12:32N 22°19' E 114°08'54 5.9
2015-May-23 03:18N 23°02' E 113°31'5 6.1
2015-May-23 02:34N 23°05' E 113°28'1 0.5
2015-May-23 01:24N 23°06' E 113°27'0 0.1
2015-May-22 22:15N 23°06' E 113°27'0 0.0
2015-May-22 21:30N 23°06' E 113°27'0 0.0
2015-May-22 20:24N 23°06' E 113°27'1 0.1
2015-May-22 11:20N 23°05' E 113°27'0 0.0
2015-May-22 10:32N 23°05' E 113°27'0 0.0
2015-May-22 09:32N 23°05' E 113°27'0 0.0
2015-May-22 08:32N 23°05' E 113°27'0 0.0
2015-May-22 01:08N 23°05' E 113°27'0 0.0
2015-May-21 17:17N 23°05' E 113°27'1 0.2
2015-May-21 13:33N 23°06' E 113°26'1 1.0
2015-May-21 12:33N 23°05' E 113°27'0 0.1
2015-May-21 09:23N 23°06' E 113°27'0 0.0
2015-May-21 08:29N 23°06' E 113°27'1 0.7
2015-May-21 07:33N 23°05' E 113°28'1 0.2
2015-May-21 02:24N 23°05' E 113°29'1 1.6
2015-May-21 01:31N 23°05' E 113°27'0 0.0
2015-May-20 23:25N 23°06' E 113°27'0 0.0
2015-May-20 11:19N 23°05' E 113°27'0 0.1
2015-May-20 08:25N 23°06' E 113°27'0 0.0
2015-May-20 07:25N 23°06' E 113°27'0 0.1
2015-May-20 06:13N 23°06' E 113°27'0 0.2
2015-May-20 05:24N 23°06' E 113°27'0 0.0
2015-May-20 04:18N 23°06' E 113°27'0 0.0
2015-May-20 03:12N 23°06' E 113°27'0 0.1
2015-May-20 02:30N 23°05' E 113°27'0 0.2
2015-May-20 01:24N 23°06' E 113°27'0 0.0
2015-May-19 16:24N 23°05' E 113°27'5 5.4
2015-May-19 15:33N 23°02' E 113°31'7 7.1
2015-May-19 14:33N 22°56' E 113°33'35 2.0
2015-May-18 21:29N 22°26' E 113°53'15 1.9
2015-May-18 13:33N 22°19' E 114°08'6 6.4
2015-May-18 12:33N 22°17' E 114°14'17 1.5
2015-May-18 01:30N 22°34' E 114°15'17 3.4
2015-May-17 20:27N 22°17' E 114°15'5 5.4
2015-May-17 19:33N 22°17' E 114°09'0 0.0
2015-May-17 01:09N 22°18' E 114°09'3 5.5
2015-May-17 00:33N 22°18' E 114°13'16 0.9
2015-May-16 07:05N 22°34' E 114°15'17 3.4
2015-May-16 02:04N 22°17' E 114°14'3 6.5
2015-May-16 01:33N 22°17' E 114°11'  
Track history (hours):
 
Tides and Currents Weather Stations Pressure Air Temp Water Temp Dewpoint Dewpoint Depression Visibility Wind Speed Wind Dir Waves Ship Positions

Shen Hang 935

Last reported at 2015-May-25 20:25 UTC. Time now 2015-May-26 09:41 UTC.
Position N 22°18' E 114°09'.

Length 49 m; draft 2.1 m.

Type: Ship. MMSI: 412466550.

Date/timePositionNaut miles runAvg speedWind from/ knotsBaromVisibWave heightAir tempDewpointWater temp
2015-May-25 20:25N 22°18' E 114°09'5 6.1
2015-May-25 19:33N 22°17' E 114°14'  
2015-May-23 13:33N 22°18' E 114°13'5 4.9
2015-May-23 12:32N 22°19' E 114°08'54 5.9
2015-May-23 03:18N 23°02' E 113°31'5 6.1
2015-May-23 02:34N 23°05' E 113°28'1 0.5
2015-May-23 01:24N 23°06' E 113°27'0 0.1
2015-May-22 22:15N 23°06' E 113°27'0 0.0
2015-May-22 21:30N 23°06' E 113°27'0 0.0
2015-May-22 20:24N 23°06' E 113°27'1 0.1
2015-May-22 11:20N 23°05' E 113°27'0 0.0
2015-May-22 10:32N 23°05' E 113°27'0 0.0
2015-May-22 09:32N 23°05' E 113°27'0 0.0
2015-May-22 08:32N 23°05' E 113°27'0 0.0
2015-May-22 01:08N 23°05' E 113°27'0 0.0
2015-May-21 17:17N 23°05' E 113°27'1 0.2
2015-May-21 13:33N 23°06' E 113°26'1 1.0
2015-May-21 12:33N 23°05' E 113°27'0 0.1
2015-May-21 09:23N 23°06' E 113°27'0 0.0
2015-May-21 08:29N 23°06' E 113°27'1 0.7
2015-May-21 07:33N 23°05' E 113°28'1 0.2
2015-May-21 02:24N 23°05' E 113°29'1 1.6
2015-May-21 01:31N 23°05' E 113°27'0 0.0
2015-May-20 23:25N 23°06' E 113°27'0 0.0
2015-May-20 11:19N 23°05' E 113°27'0 0.1
2015-May-20 08:25N 23°06' E 113°27'0 0.0
2015-May-20 07:25N 23°06' E 113°27'0 0.1
2015-May-20 06:13N 23°06' E 113°27'0 0.2
2015-May-20 05:24N 23°06' E 113°27'0 0.0
2015-May-20 04:18N 23°06' E 113°27'0 0.0
2015-May-20 03:12N 23°06' E 113°27'0 0.1
2015-May-20 02:30N 23°05' E 113°27'0 0.2
2015-May-20 01:24N 23°06' E 113°27'0 0.0
2015-May-19 16:24N 23°05' E 113°27'5 5.4
2015-May-19 15:33N 23°02' E 113°31'7 7.1
2015-May-19 14:33N 22°56' E 113°33'35 2.0
2015-May-18 21:29N 22°26' E 113°53'15 1.9
2015-May-18 13:33N 22°19' E 114°08'6 6.4
2015-May-18 12:33N 22°17' E 114°14'17 1.5
2015-May-18 01:30N 22°34' E 114°15'17 3.4
2015-May-17 20:27N 22°17' E 114°15'5 5.4
2015-May-17 19:33N 22°17' E 114°09'0 0.0
2015-May-17 01:09N 22°18' E 114°09'3 5.5
2015-May-17 00:33N 22°18' E 114°13'16 0.9
2015-May-16 07:05N 22°34' E 114°15'17 3.4
2015-May-16 02:04N 22°17' E 114°14'3 6.5
2015-May-16 01:33N 22°17' E 114°11'  

Dump ship's entire track history